createdAt,value
2018-02-24T00:01:41.685Z,63.40
2018-02-24T00:04:09.245Z,63.30
2018-02-24T00:06:37.501Z,63.90
2018-02-24T00:09:05.131Z,63.80
2018-02-24T00:11:32.643Z,64.00
2018-02-24T00:14:00.153Z,64.50
2018-02-24T00:16:27.661Z,64.70
2018-02-24T00:18:57.228Z,65.20
2018-02-24T00:21:24.933Z,64.80
2018-02-24T00:23:52.429Z,65.00
2018-02-24T00:26:21.140Z,65.00
2018-02-24T00:28:48.731Z,64.90
2018-02-24T00:31:16.259Z,65.10
2018-02-24T00:33:43.753Z,65.10
2018-02-24T00:36:11.331Z,65.20
2018-02-24T00:38:40.220Z,65.30
2018-02-24T00:41:07.730Z,65.40
2018-02-24T00:43:36.077Z,65.40
2018-02-24T00:46:03.569Z,65.30
2018-02-24T00:48:31.865Z,65.00
2018-02-24T00:50:59.379Z,65.00
2018-02-24T00:53:26.880Z,65.00
2018-02-24T00:55:55.168Z,64.60
2018-02-24T00:58:23.438Z,64.40
2018-02-24T01:00:51.749Z,64.30
2018-02-24T01:03:19.257Z,64.30
2018-02-24T01:05:46.774Z,64.30
2018-02-24T01:08:14.277Z,64.40
2018-02-24T01:10:41.798Z,64.40
2018-02-24T01:13:09.306Z,64.40
2018-02-24T01:15:36.808Z,64.50
2018-02-24T01:18:05.552Z,64.30
2018-02-24T01:20:33.057Z,64.20
2018-02-24T01:23:01.338Z,64.20
2018-02-24T01:25:29.606Z,64.40
2018-02-24T01:27:57.638Z,64.40
2018-02-24T01:30:25.734Z,64.40
2018-02-24T01:32:53.639Z,64.40
2018-02-24T01:35:21.901Z,63.70
2018-02-24T01:37:49.388Z,63.60
2018-02-24T01:40:17.667Z,63.50
2018-02-24T01:42:45.927Z,62.50
2018-02-24T01:45:13.440Z,62.50
2018-02-24T01:47:40.930Z,61.90
2018-02-24T01:50:08.442Z,61.50
2018-02-24T01:52:36.756Z,60.50
2018-02-24T01:55:04.253Z,60.50
2018-02-24T01:57:31.752Z,59.90
2018-02-24T02:00:00.013Z,59.00
2018-02-24T02:02:28.200Z,59.10
2018-02-24T02:04:56.453Z,58.30
2018-02-24T02:07:23.959Z,58.30
2018-02-24T02:09:51.454Z,58.00
2018-02-24T02:12:18.952Z,57.90
2018-02-24T02:14:46.468Z,57.80
2018-02-24T02:17:13.947Z,57.60
2018-02-24T02:19:41.453Z,57.60
2018-02-24T02:22:08.944Z,57.50
2018-02-24T02:24:36.451Z,57.30
2018-02-24T02:27:03.960Z,57.80
2018-02-24T02:29:31.483Z,58.10
2018-02-24T02:31:58.988Z,58.30
2018-02-24T02:34:27.252Z,58.30
2018-02-24T02:36:55.528Z,58.30
2018-02-24T02:39:23.036Z,58.30
2018-02-24T02:41:50.544Z,58.00
2018-02-24T02:44:18.069Z,57.90
2018-02-24T02:46:45.560Z,58.10
2018-02-24T02:49:13.185Z,58.10
2018-02-24T02:51:40.744Z,57.90
2018-02-24T02:54:08.250Z,58.20
2018-02-24T02:56:36.244Z,58.00
2018-02-24T02:59:04.587Z,58.10
2018-02-24T03:01:32.093Z,58.00
2018-02-24T03:03:59.609Z,57.90
2018-02-24T03:06:27.136Z,58.20
2018-02-24T03:08:55.410Z,57.80
2018-02-24T03:11:23.678Z,57.70
2018-02-24T03:13:51.934Z,57.50
2018-02-24T03:16:19.442Z,57.50
2018-02-24T03:18:47.689Z,57.50
2018-02-24T03:21:15.953Z,57.60
2018-02-24T03:23:43.452Z,57.60
2018-02-24T03:26:11.722Z,58.00
2018-02-24T03:28:39.281Z,58.00
2018-02-24T03:31:06.792Z,58.30
2018-02-24T03:33:34.306Z,58.50
2018-02-24T03:36:01.805Z,58.40
2018-02-24T03:38:29.297Z,58.50
2018-02-24T03:40:56.849Z,59.30
2018-02-24T03:43:24.343Z,59.70
2018-02-24T03:45:51.849Z,59.60
2018-02-24T03:48:20.437Z,60.10
2018-02-24T03:50:48.707Z,60.40
2018-02-24T03:53:16.977Z,60.60
2018-02-24T03:55:44.485Z,60.60
2018-02-24T03:58:11.980Z,61.00
2018-02-24T04:00:39.477Z,61.60
2018-02-24T04:03:07.730Z,62.50
2018-02-24T04:05:36.029Z,62.70
2018-02-24T04:08:04.294Z,62.80
2018-02-24T04:10:31.790Z,62.70
2018-02-24T04:13:00.053Z,63.10
2018-02-24T04:15:27.597Z,63.20
2018-02-24T04:17:55.077Z,63.40
2018-02-24T04:20:23.356Z,64.30
2018-02-24T04:22:50.840Z,64.30
2018-02-24T04:25:19.131Z,65.20
2018-02-24T04:27:46.614Z,65.00
2018-02-24T04:30:14.107Z,65.70
2018-02-24T04:32:41.614Z,66.00
2018-02-24T04:35:09.879Z,65.90
2018-02-24T04:37:38.169Z,66.00
2018-02-24T04:40:06.440Z,66.40
2018-02-24T04:42:33.944Z,66.30
2018-02-24T04:45:01.443Z,66.90
2018-02-24T04:47:28.939Z,67.20
2018-02-24T04:49:57.206Z,68.30
2018-02-24T04:52:24.712Z,68.30
2018-02-24T04:54:53.086Z,68.60
2018-02-24T04:57:20.598Z,69.00
2018-02-24T04:59:48.086Z,69.40
2018-02-24T05:02:16.354Z,69.50
2018-02-24T05:04:44.364Z,69.40
2018-02-24T05:07:11.857Z,69.70
2018-02-24T05:09:39.365Z,70.20
2018-02-24T05:12:06.865Z,70.50
2018-02-24T05:14:34.366Z,70.60
2018-02-24T05:17:01.865Z,70.80
2018-02-24T05:19:30.127Z,71.30
2018-02-24T05:21:57.633Z,71.20
2018-02-24T05:24:25.130Z,71.50
2018-02-24T05:26:53.240Z,71.90
2018-02-24T05:29:22.321Z,72.10
2018-02-24T05:31:49.831Z,71.90
2018-02-24T05:34:17.338Z,72.00
2018-02-24T05:36:44.868Z,72.00
2018-02-24T05:39:12.362Z,72.20
2018-02-24T05:41:39.853Z,72.10
2018-02-24T05:44:08.126Z,72.00
2018-02-24T05:46:35.606Z,72.00
2018-02-24T05:49:03.887Z,72.10
2018-02-24T05:51:32.137Z,72.20
2018-02-24T05:53:59.655Z,72.20
2018-02-24T05:56:27.198Z,72.30
2018-02-24T05:58:55.471Z,72.70
2018-02-24T06:01:23.746Z,73.00
2018-02-24T06:03:52.005Z,73.30
2018-02-24T06:06:19.537Z,73.30
2018-02-24T06:08:47.037Z,73.40
2018-02-24T06:11:14.582Z,73.70
2018-02-24T06:13:42.077Z,73.80
2018-02-24T06:16:10.381Z,73.20
2018-02-24T06:18:38.791Z,73.40
2018-02-24T06:21:06.301Z,72.70
2018-02-24T06:23:33.909Z,72.60
2018-02-24T06:26:01.406Z,72.50
2018-02-24T06:28:28.898Z,72.10
2018-02-24T06:30:57.220Z,72.00
2018-02-24T06:33:24.714Z,72.00
2018-02-24T06:35:52.221Z,72.10
2018-02-24T06:38:20.477Z,71.90
2018-02-24T06:40:47.990Z,71.90
2018-02-24T06:43:15.522Z,71.80
2018-02-24T06:45:43.026Z,71.90
2018-02-24T06:48:10.527Z,71.70
2018-02-24T06:50:38.027Z,71.50
2018-02-24T06:53:05.549Z,70.90
2018-02-24T06:55:33.103Z,70.60
2018-02-24T06:58:00.602Z,69.10
2018-02-24T07:00:28.891Z,65.70
2018-02-24T07:02:56.467Z,65.70
2018-02-24T07:05:23.961Z,63.60
2018-02-24T07:07:51.476Z,61.10
2018-02-24T07:10:19.790Z,59.70
2018-02-24T07:12:47.316Z,59.70
2018-02-24T07:15:15.579Z,58.40
2018-02-24T07:17:43.081Z,58.40
2018-02-24T07:20:10.606Z,57.20
2018-02-24T07:22:38.098Z,57.40
2018-02-24T07:25:06.379Z,56.20
2018-02-24T07:27:34.632Z,55.90
2018-02-24T07:30:02.151Z,55.90
2018-02-24T07:32:29.648Z,55.90
2018-02-24T07:34:57.229Z,55.90
2018-02-24T07:37:25.512Z,55.60
2018-02-24T07:39:53.759Z,55.40
2018-02-24T07:42:21.245Z,55.40
2018-02-24T07:44:48.750Z,55.10
2018-02-24T07:47:16.250Z,54.90
2018-02-24T07:49:43.733Z,53.20
2018-02-24T07:52:11.237Z,51.70
2018-02-24T07:54:38.726Z,51.40
2018-02-24T07:57:06.220Z,51.00
2018-02-24T07:59:33.713Z,51.50
2018-02-24T08:02:01.958Z,51.20
2018-02-24T08:04:29.555Z,51.20
2018-02-24T08:06:57.821Z,50.00
2018-02-24T08:09:26.092Z,49.70
2018-02-24T08:11:53.582Z,49.60
2018-02-24T08:14:21.478Z,49.30
2018-02-24T08:16:48.989Z,48.10
2018-02-24T08:19:16.525Z,47.10
2018-02-24T08:21:44.022Z,45.60
2018-02-24T08:24:13.796Z,45.10
2018-02-24T08:26:41.302Z,45.10
2018-02-24T08:29:09.568Z,43.10
2018-02-24T08:31:37.058Z,43.00
2018-02-24T08:34:05.313Z,44.20
2018-02-24T08:36:32.815Z,44.20
2018-02-24T08:39:00.306Z,44.20
2018-02-24T08:41:27.785Z,43.50
2018-02-24T08:43:55.290Z,42.30
2018-02-24T08:46:24.703Z,43.10
2018-02-24T08:48:53.084Z,42.50
2018-02-24T08:51:21.334Z,42.30
2018-02-24T08:53:48.865Z,42.30
2018-02-24T08:56:16.335Z,41.40
2018-02-24T08:58:43.842Z,40.30
2018-02-24T09:01:12.123Z,40.30
2018-02-24T09:03:40.386Z,40.70
2018-02-24T09:06:07.874Z,40.70
2018-02-24T09:08:36.133Z,40.70
2018-02-24T09:11:03.637Z,40.60
2018-02-24T09:13:31.140Z,40.10
2018-02-24T09:15:58.829Z,40.40
2018-02-24T09:18:27.135Z,40.20
2018-02-24T09:20:54.647Z,40.20
2018-02-24T09:23:22.137Z,40.30
2018-02-24T09:25:49.628Z,40.00
2018-02-24T09:28:17.265Z,39.10
2018-02-24T09:30:44.810Z,39.00
2018-02-24T09:33:12.317Z,38.10
2018-02-24T09:35:39.860Z,38.50
2018-02-24T09:38:07.350Z,39.40
2018-02-24T09:40:34.842Z,39.70
2018-02-24T09:43:02.349Z,40.10
2018-02-24T09:45:29.842Z,39.50
2018-02-24T09:47:57.322Z,39.40
2018-02-24T09:50:24.840Z,39.00
2018-02-24T09:52:53.118Z,37.10
2018-02-24T09:55:20.640Z,37.50
2018-02-24T09:57:48.135Z,36.00
2018-02-24T10:00:15.641Z,35.70
2018-02-24T10:02:43.887Z,35.70
2018-02-24T10:05:12.165Z,36.40
2018-02-24T10:07:39.676Z,36.30
2018-02-24T10:10:07.163Z,35.90
2018-02-24T10:12:34.893Z,36.70
2018-02-24T10:15:02.576Z,35.40
2018-02-24T10:17:30.152Z,35.80
2018-02-24T10:19:57.934Z,37.40
2018-02-24T10:22:25.466Z,37.80
2018-02-24T10:24:54.311Z,38.50
2018-02-24T10:27:21.804Z,39.40
2018-02-24T10:29:50.907Z,39.50
2018-02-24T10:32:19.259Z,39.40
2018-02-24T10:34:46.788Z,39.30
2018-02-24T10:37:15.294Z,39.60
2018-02-24T10:39:42.793Z,40.20
2018-02-24T10:42:11.108Z,40.60
2018-02-24T10:44:38.603Z,40.60
2018-02-24T10:47:06.171Z,40.30
2018-02-24T10:49:33.700Z,39.70
2018-02-24T10:52:01.427Z,38.50
2018-02-24T10:54:28.946Z,36.40
2018-02-24T10:56:56.460Z,36.00
2018-02-24T10:59:24.795Z,35.80
2018-02-24T11:01:52.344Z,35.80
2018-02-24T11:04:19.877Z,36.30
2018-02-24T11:06:48.150Z,36.50
2018-02-24T11:09:16.528Z,36.00
2018-02-24T11:11:44.810Z,36.20
2018-02-24T11:14:13.125Z,36.60
2018-02-24T11:16:40.650Z,36.50
2018-02-24T11:19:08.950Z,38.00
2018-02-24T11:21:37.269Z,37.90
2018-02-24T11:24:04.788Z,37.80
2018-02-24T11:26:33.073Z,35.30
2018-02-24T11:29:01.368Z,34.20
2018-02-24T11:31:29.613Z,34.20
2018-02-24T11:33:57.096Z,34.20
2018-02-24T11:36:25.358Z,32.90
2018-02-24T11:38:52.829Z,32.90
2018-02-24T11:41:21.084Z,32.20
2018-02-24T11:43:48.575Z,32.20
2018-02-24T11:46:16.842Z,32.50
2018-02-24T11:48:45.197Z,32.30
2018-02-24T11:51:12.691Z,32.10
2018-02-24T11:53:40.977Z,32.10
2018-02-24T11:56:09.246Z,31.80
2018-02-24T11:58:37.620Z,31.70
2018-02-24T12:01:06.649Z,31.40
2018-02-24T12:03:34.899Z,31.70
2018-02-24T12:06:03.898Z,31.70
2018-02-24T12:08:31.413Z,31.70
2018-02-24T12:10:59.178Z,31.40
2018-02-24T12:13:26.695Z,31.90
2018-02-24T12:15:54.989Z,30.60
2018-02-24T12:18:22.470Z,30.50
2018-02-24T12:20:50.027Z,30.40
2018-02-24T12:23:18.360Z,31.10
2018-02-24T12:25:45.890Z,31.90
2018-02-24T12:28:13.396Z,31.90
2018-02-24T12:30:40.916Z,31.90
2018-02-24T12:33:08.396Z,32.30
2018-02-24T12:35:35.908Z,32.70
2018-02-24T12:38:04.171Z,31.80
2018-02-24T12:40:31.838Z,31.20
2018-02-24T12:42:59.322Z,31.10
2018-02-24T12:45:27.647Z,30.60
2018-02-24T12:47:55.179Z,31.00
2018-02-24T12:50:22.693Z,30.80
2018-02-24T12:52:50.186Z,31.20
2018-02-24T12:55:17.702Z,30.90
2018-02-24T12:57:45.200Z,31.10
2018-02-24T13:00:12.727Z,32.10
2018-02-24T13:02:40.218Z,32.70
2018-02-24T13:05:07.728Z,33.00
2018-02-24T13:07:35.981Z,33.20
2018-02-24T13:10:03.501Z,33.20
2018-02-24T13:12:31.005Z,33.40
2018-02-24T13:14:58.514Z,33.60
2018-02-24T13:17:26.070Z,34.30
2018-02-24T13:19:53.581Z,34.40
2018-02-24T13:22:21.096Z,33.90
2018-02-24T13:24:48.818Z,33.30
2018-02-24T13:27:16.343Z,33.30
2018-02-24T13:29:43.984Z,33.70
2018-02-24T13:32:12.234Z,34.20
2018-02-24T13:34:39.831Z,34.20
2018-02-24T13:37:08.096Z,35.30
2018-02-24T13:39:36.389Z,34.80
2018-02-24T13:42:04.731Z,35.40
2018-02-24T13:44:32.355Z,35.40
2018-02-24T13:47:00.352Z,35.30
2018-02-24T13:49:27.878Z,35.70
2018-02-24T13:51:55.512Z,35.30
2018-02-24T13:54:23.022Z,36.00
2018-02-24T13:56:50.530Z,35.90
2018-02-24T13:59:18.068Z,35.30
2018-02-24T14:01:45.588Z,34.80
2018-02-24T14:04:13.848Z,34.40
2018-02-24T14:06:41.381Z,34.40
2018-02-24T14:09:08.862Z,34.20
2018-02-24T14:11:36.549Z,33.90
2018-02-24T14:14:04.138Z,33.60
2018-02-24T14:16:32.404Z,34.30
2018-02-24T14:19:00.681Z,34.10
2018-02-24T14:21:28.962Z,34.10
2018-02-24T14:23:56.503Z,34.00
2018-02-24T14:26:23.998Z,34.00
2018-02-24T14:28:52.258Z,33.90
2018-02-24T14:31:19.770Z,33.90
2018-02-24T14:33:47.274Z,34.40
2018-02-24T14:36:14.773Z,33.80
2018-02-24T14:38:43.650Z,34.20
2018-02-24T14:41:11.159Z,34.20
2018-02-24T14:43:38.727Z,34.50
2018-02-24T14:46:06.348Z,34.70
2018-02-24T14:48:34.628Z,34.90
2018-02-24T14:51:02.901Z,35.10
2018-02-24T14:53:31.779Z,35.60
2018-02-24T14:55:59.591Z,35.60
2018-02-24T14:58:27.848Z,35.30
2018-02-24T15:00:56.109Z,34.50
2018-02-24T15:03:23.656Z,34.80
2018-02-24T15:05:51.172Z,34.30
2018-02-24T15:08:19.468Z,34.90
2018-02-24T15:10:47.151Z,34.90
2018-02-24T15:13:14.750Z,34.50
2018-02-24T15:15:43.019Z,34.80
2018-02-24T15:18:10.550Z,34.80
2018-02-24T15:20:38.171Z,34.90
2018-02-24T15:23:05.731Z,35.10
2018-02-24T15:25:33.218Z,35.00
2018-02-24T15:28:01.588Z,35.80
2018-02-24T15:30:29.886Z,36.50
2018-02-24T15:32:57.409Z,36.00
2018-02-24T15:35:24.947Z,36.20
2018-02-24T15:37:52.454Z,36.70
2018-02-24T15:40:20.386Z,37.20
2018-02-24T15:42:47.870Z,36.80
2018-02-24T15:45:15.422Z,36.00
2018-02-24T15:47:42.947Z,35.50
2018-02-24T15:50:11.234Z,36.20
2018-02-24T15:52:38.811Z,36.10
2018-02-24T15:55:06.347Z,36.50
2018-02-24T15:57:34.625Z,37.00
2018-02-24T16:00:02.959Z,36.80
2018-02-24T16:02:30.519Z,36.80
2018-02-24T16:04:58.035Z,36.70
2018-02-24T16:07:26.295Z,37.10
2018-02-24T16:09:53.815Z,36.80
2018-02-24T16:12:21.494Z,37.10
2018-02-24T16:14:49.018Z,37.50
2018-02-24T16:17:17.314Z,38.10
2018-02-24T16:19:45.079Z,38.10
2018-02-24T16:22:12.679Z,38.50
2018-02-24T16:24:41.017Z,38.90
2018-02-24T16:27:09.288Z,38.90
2018-02-24T16:29:37.755Z,39.40
2018-02-24T16:32:06.042Z,39.00
2018-02-24T16:34:33.829Z,39.30
2018-02-24T16:37:02.222Z,37.90
2018-02-24T16:39:29.755Z,37.90
2018-02-24T16:41:58.025Z,37.80
2018-02-24T16:44:25.656Z,37.50
2018-02-24T16:46:53.183Z,37.20
2018-02-24T16:49:20.710Z,38.40
2018-02-24T16:51:48.211Z,38.50
2018-02-24T16:54:16.541Z,38.40
2018-02-24T16:56:44.078Z,38.40
2018-02-24T16:59:12.051Z,38.20
2018-02-24T17:01:39.548Z,38.00
2018-02-24T17:04:07.053Z,38.20
2018-02-24T17:06:35.332Z,38.40
2018-02-24T17:09:03.680Z,38.70
2018-02-24T17:11:31.227Z,38.70
2018-02-24T17:13:58.732Z,39.00
2018-02-24T17:16:26.372Z,39.10
2018-02-24T17:18:53.877Z,39.50
2018-02-24T17:21:22.255Z,40.10
2018-02-24T17:23:50.509Z,40.40
2018-02-24T17:26:17.999Z,40.40
2018-02-24T17:28:46.443Z,41.30
2018-02-24T17:31:13.955Z,40.80
2018-02-24T17:33:42.206Z,41.40
2018-02-24T17:36:09.703Z,41.30
2018-02-24T17:38:37.193Z,41.70
2018-02-24T17:41:04.694Z,42.00
2018-02-24T17:43:32.201Z,42.10
2018-02-24T17:45:59.732Z,42.40
2018-02-24T17:48:27.299Z,42.70
2018-02-24T17:50:54.788Z,42.90
2018-02-24T17:53:22.318Z,42.80
2018-02-24T17:55:50.004Z,43.00
2018-02-24T17:58:17.782Z,43.00
2018-02-24T18:00:46.875Z,43.30
2018-02-24T18:03:15.175Z,43.70
2018-02-24T18:05:44.545Z,43.50
2018-02-24T18:08:12.842Z,43.80
2018-02-24T18:10:41.098Z,43.80
2018-02-24T18:13:08.643Z,43.80
2018-02-24T18:15:36.266Z,43.90
2018-02-24T18:18:03.825Z,44.00
2018-02-24T18:20:31.395Z,44.20
2018-02-24T18:22:58.938Z,44.30
2018-02-24T18:25:26.438Z,44.30
2018-02-24T18:27:53.946Z,44.20
2018-02-24T18:30:22.249Z,44.30
2018-02-24T18:32:49.793Z,44.30
2018-02-24T18:35:18.084Z,44.40
2018-02-24T18:37:46.372Z,44.20
2018-02-24T18:40:15.355Z,44.40
2018-02-24T18:42:42.857Z,44.40
2018-02-24T18:45:10.369Z,44.30
2018-02-24T18:47:37.878Z,44.50
2018-02-24T18:50:05.386Z,44.60
2018-02-24T18:52:32.908Z,44.90
2018-02-24T18:55:00.561Z,45.00
2018-02-24T18:57:28.091Z,44.90
2018-02-24T18:59:56.375Z,45.10
2018-02-24T19:02:23.899Z,45.10
2018-02-24T19:04:51.535Z,45.30
2018-02-24T19:07:19.794Z,45.00
2018-02-24T19:09:48.087Z,45.00
2018-02-24T19:12:16.350Z,45.00
2018-02-24T19:14:43.877Z,45.10
2018-02-24T19:17:11.393Z,44.80
2018-02-24T19:19:38.973Z,44.80
2018-02-24T19:22:06.470Z,45.00
2018-02-24T19:24:34.026Z,45.30
2018-02-24T19:27:02.365Z,45.10
2018-02-24T19:29:30.626Z,44.80
2018-02-24T19:31:58.227Z,44.80
2018-02-24T19:34:28.647Z,44.80
2018-02-24T19:36:56.192Z,44.80
2018-02-24T19:39:23.744Z,45.00
2018-02-24T19:41:52.130Z,44.30
2018-02-24T19:44:19.685Z,44.60
2018-02-24T19:46:47.196Z,45.20
2018-02-24T19:49:14.724Z,45.00
2018-02-24T19:51:43.738Z,44.70
2018-02-24T19:54:12.030Z,45.00
2018-02-24T19:56:40.287Z,45.10
2018-02-24T19:59:08.578Z,45.70
2018-02-24T20:01:36.856Z,45.40
2018-02-24T20:04:05.134Z,45.30
2018-02-24T20:06:33.402Z,45.60
2018-02-24T20:09:00.930Z,45.60
2018-02-24T20:11:28.424Z,45.70
2018-02-24T20:13:55.943Z,45.90
2018-02-24T20:16:23.519Z,46.20
2018-02-24T20:18:51.058Z,46.10
2018-02-24T20:21:19.353Z,46.50
2018-02-24T20:23:46.865Z,46.40
2018-02-24T20:26:14.389Z,46.40
2018-02-24T20:28:41.926Z,46.70
2018-02-24T20:31:10.195Z,46.70
2018-02-24T20:33:38.514Z,46.70
2018-02-24T20:36:06.021Z,46.60
2018-02-24T20:38:34.277Z,46.60
2018-02-24T20:41:02.601Z,47.20
2018-02-24T20:43:30.885Z,47.90
2018-02-24T20:45:59.267Z,47.30
2018-02-24T20:48:27.814Z,47.90
2018-02-24T20:50:55.442Z,47.50
2018-02-24T20:53:22.939Z,47.90
2018-02-24T20:55:50.469Z,48.20
2018-02-24T20:58:17.973Z,48.50
2018-02-24T21:00:45.495Z,48.20
2018-02-24T21:03:12.989Z,47.70
2018-02-24T21:05:40.539Z,47.70
2018-02-24T21:08:08.087Z,47.40
2018-02-24T21:10:37.326Z,47.40
2018-02-24T21:13:04.888Z,47.20
2018-02-24T21:15:32.606Z,47.00
2018-02-24T21:18:00.887Z,46.70
2018-02-24T21:20:29.204Z,45.90
2018-02-24T21:22:56.701Z,45.90
2018-02-24T21:25:24.219Z,45.60
2018-02-24T21:27:52.253Z,45.80
2018-02-24T21:30:19.808Z,45.60
2018-02-24T21:32:48.810Z,45.50
2018-02-24T21:35:16.314Z,45.50
2018-02-24T21:37:43.949Z,45.40
2018-02-24T21:40:12.252Z,45.50
2018-02-24T21:42:39.777Z,45.40
2018-02-24T21:45:07.305Z,45.40
2018-02-24T21:47:34.822Z,45.50
2018-02-24T21:50:03.118Z,45.80
2018-02-24T21:52:30.619Z,45.70
2018-02-24T21:54:58.162Z,45.50
2018-02-24T21:57:25.653Z,45.30
2018-02-24T21:59:53.143Z,45.10
2018-02-24T22:02:20.630Z,45.40
2018-02-24T22:04:48.933Z,45.70
2018-02-24T22:07:16.425Z,45.60
2018-02-24T22:09:43.913Z,45.60
2018-02-24T22:12:11.465Z,46.00
2018-02-24T22:14:39.096Z,46.00
2018-02-24T22:17:06.615Z,45.90
2018-02-24T22:19:34.118Z,45.80
2018-02-24T22:22:01.646Z,46.10
2018-02-24T22:24:29.140Z,46.20
2018-02-24T22:26:56.714Z,46.30
2018-02-24T22:29:24.213Z,46.40
2018-02-24T22:31:51.716Z,46.50
2018-02-24T22:34:19.987Z,46.80
2018-02-24T22:36:48.279Z,46.80
2018-02-24T22:39:16.561Z,47.00
2018-02-24T22:41:44.093Z,47.00
2018-02-24T22:44:11.602Z,47.00
2018-02-24T22:46:39.122Z,47.80
2018-02-24T22:49:07.406Z,47.60
2018-02-24T22:51:34.913Z,47.60
2018-02-24T22:54:03.300Z,47.70
2018-02-24T22:56:30.813Z,47.80
2018-02-24T22:58:58.312Z,48.00
2018-02-24T23:01:25.836Z,48.30
2018-02-24T23:03:53.324Z,48.50
2018-02-24T23:06:21.642Z,48.50
2018-02-24T23:08:49.170Z,48.50
2018-02-24T23:11:16.921Z,48.60
2018-02-24T23:13:45.208Z,49.00
2018-02-24T23:16:13.484Z,49.00
2018-02-24T23:18:40.979Z,48.90
2018-02-24T23:21:08.482Z,48.70
2018-02-24T23:23:36.829Z,48.90
2018-02-24T23:26:04.332Z,49.00
2018-02-24T23:28:31.877Z,49.20
2018-02-24T23:30:59.396Z,49.30
2018-02-24T23:33:28.835Z,49.40
2018-02-24T23:35:56.350Z,49.40
2018-02-24T23:38:24.634Z,49.40
2018-02-24T23:40:52.201Z,49.40
2018-02-24T23:43:20.495Z,49.40
2018-02-24T23:45:48.769Z,49.60
2018-02-24T23:48:17.387Z,49.90
2018-02-24T23:50:45.668Z,49.90
2018-02-24T23:53:13.291Z,50.00
2018-02-24T23:55:42.115Z,50.00
2018-02-24T23:58:09.629Z,49.90
